Aérodrome :
LOGIN :

S'inscrire | Disclaimer

   EN    FR    IT 

 










Légende :    VFR   VFR Marginal   IFR   IFR Intensif   IFR Très Intensif
Visi : 
Plafond : 
>= 8 km
>= 3000ft
5 à 8 km
1000 à 3000 ft
1500m à 5 km
500 à 1000 ft
800 à 1500m
200 à 500 ft
< 800m
< 200 ft
Symboles :   Orages  Brouillard  Fortes neiges  Fortes précipitations  Vent > 20 kt
SIGMETs :   Divers  Orages  Givrage  Turbulence  Onde Orograph.  Cendres Volcan.






- Altitude de l'aérodrome : 325 ft
- Code IATA : BES


LFRB - Brest

DERNIER METAR :
  • 251630Z AUTO 02008KT 9999 OVC035 10/07 Q1015 NOSIG

METARs EXPIRÉS :
  • 251600Z AUTO 02010KT 350V050 9999 OVC035 10/06 Q1014 NOSIG
  • 251530Z AUTO 02008KT 9999 OVC035 10/06 Q1014 NOSIG
  • 251500Z AUTO 02009KT 9999 FEW028 OVC034 10/06 Q1014 NOSIG
  • 251430Z AUTO 02012KT 9999 OVC021 10/07 Q1014 NOSIG
  • 251400Z AUTO 02009KT 9999 OVC019 10/08 Q1014 NOSIG

TAF TAF LFRB
Valide du 25 à 12h jusqu'au 26 à 18h UTC


251100Z 2512/2618 01010KT 9999 OVC013
BECMG 2512/2514 OVC040
TEMPO 2602/2612 RA BKN013
PROB40
TEMPO 2607/2610 BKN007
ATIS : +33 2 98 32 02 71



MET'MAP, la Météo Aéronautique d'un coup d'oeil ! - Copyright ORBIFLY Décembre 2007 - Disclaimer

ORBIFLY MET'MAP TEAM :

Programmation & Développement : Alexandra Zaïnal
Sur une idée originale de : Baudouin d'Aumeries
Assistance à la programmation : Marc-Olivier Méhu
Soutien technique & logistique : Manuel Goepfert

Contact : metmap@orbifly.com




SOURCES & CREDITS :

   NOAA